x

West Santa Barbara 38 Nm West Of Santa Barbara, Ca (46054) Wave Buoy

4:50 - Wed 1st Oct 2014 All times are PDT. -7 hours from GMT.

  • Sig Wave height 8.2ft
  • Swell Direction
  • Peak Period 8s
  • Average Period 7s
  • Wind
    13mph, 18mph gusts
  • Sea Temp 61°f
  • Ar Temp 61°f
  • Sea Pressure 1006.5mb
  • West Santa Barbara  38 Nm West Of Santa Barbara, Ca
  • West Santa Barbara  38 Nm West Of Santa Barbara, Ca

More Historic Weather Station data

Upgrade to MSW Pro to gain access to the past 30 days of data for over 8000 Wavebouys and Weather Stations around the globe.

Join Pro

Comparision Forecast

View Surf forecast
   
Qua 10/01 4:50 8ft 8s 7s 13 18 mph 1006.5mb 61f 61f
3:50 8ft 9s 7s 16 18 mph 1006.2mb 61f 60f
2:50 7ft 9s 7s 18 22 mph 1006.4mb 61f 60f
1:50 7.5ft 9s 6s 22 27 mph 1006.5mb 61f 60f
12:50 7ft 8s 6s 22 27 mph 1006.9mb 62f 60f
Ter 09/30 11:50 7ft 8s 6s 22 27 mph 1007.2mb 62f 61f
10:50 7ft 8s 6s 22 27 mph 1007.7mb 62f 61f
9:50 7ft 8s 6s 22 29 mph 1008mb 62f 61f
8:50 7.5ft 8s 6s 25 34 mph 1008.1mb 62f 61f
7:50 8ft 7s 6s 27 34 mph 1007.9mb 62f 61f
6:50 9ft 8s 6s 25 29 mph 1008.2mb 62f 61f
5:50 8.5ft 8s 7s 27 34 mph 1007.9mb 60f 61f
4:50 8ft 8s 6s 25 31 mph 1008.3mb 60f 61f
3:50 8ft 8s 6s 29 36 mph 1008.5mb 60f 61f
2:50 7ft 7s 6s 27 34 mph 1009.1mb 60f 61f
1:50 7ft 8s 6s 27 34 mph 1009.6mb 60f 60f
12:50 7ft 8s 6s 22 29 mph 1010.4mb 59f 60f
11:50 6.5ft 8s 6s 20 25 mph 1011mb 60f 60f
10:50 6ft 8s 6s 20 25 mph 1011mb 60f 60f
9:50 6.5ft 8s 6s 22 29 mph 1011.1mb 60f 60f
8:50 6ft 7s 6s 25 29 mph 1010.8mb 60f 60f
7:50 6ft 8s 5s 27 31 mph 1010.5mb 60f 60f
6:50 6ft 7s 5s 22 27 mph 1010mb 60f 60f
5:50 6ft 7s 5s 25 29 mph 1009.8mb 60f 60f
4:50 5.5ft 7s 6s 25 29 mph 1010mb 60f 60f
3:50 5ft 7s 5s 25 27 mph 1009.9mb 60f 60f
2:50 5ft 7s 5s 22 27 mph 1010.7mb 60f 60f
1:50 6ft 7s 5s 25 29 mph 1011.2mb 60f 60f
12:50 6ft 7s 5s 27 34 mph 1011.1mb 60f 61f
Seg 09/29 11:50 6ft 7s 5s 27 31 mph 1011.1mb 60f 61f
10:50 6ft 6s 5s 29 34 mph 1011.2mb 60f 62f
9:50 6ft 7s 5s 29 34 mph 1011.1mb 60f 62f
8:50 6ft 7s 5s 29 34 mph 1011mb 60f 62f
7:50 6ft 6s 5s 27 31 mph 1010.9mb 60f 62f
6:50 6ft 6s 5s 22 29 mph 1011mb 60f 62f
5:50 5.5ft 9s 5s 25 29 mph 1011.1mb 61f 62f
4:50 5ft 6s 5s 20 25 mph 1011.4mb 62f 63f
3:50 5ft 8s 5s 20 22 mph 1011.4mb 62f 63f
2:50 5.5ft 8s 5s 20 22 mph 1011.6mb 62f 63f
1:50 4.5ft 9s 5s 22 27 mph 1012.1mb 62f 63f
12:50 4.5ft 9s 6s 22 27 mph 1012.6mb 62f 63f
11:50 4ft 9s 6s 18 20 mph 1013.4mb 61f 62f
10:50 4ft 8s 6s 7
mph
1014mb 62f 62f
9:50 4.5ft 9s 6s 9
mph
1014.1mb 61f 61f
8:50 4.5ft 10s 6s 16 18 mph 1014mb 62f 62f
7:50 4.5ft 10s 6s 9 11 mph 1013.5mb 62f 62f
6:50 4.5ft 10s 6s 11
mph
1012.8mb 62f 62f
5:50 4.5ft 9s 7s 13 18 mph 1012.5mb 62f 62f
4:50 4.5ft 9s 6s 16 18 mph 1012.4mb 63f 62f
3:50 4.5ft 9s 6s 16 18 mph 1012.6mb 63f 62f
2:50 5ft 10s 7s 16 18 mph 1012.7mb 63f 62f
1:50 5ft 11s 7s 16 18 mph 1012.7mb 63f 62f
12:50 5ft 10s 7s 13 16 mph 1012.6mb 63f 63f
Dom 09/28 11:50 5.5ft 10s 6s 13 16 mph 1012.7mb 63f 62f
10:50 6ft 10s 7s 16 18 mph 1012.8mb 63f 63f
9:50 6ft 9s 7s 16 20 mph 1012.7mb 64f 63f
8:50 6ft 10s 7s 16 18 mph 1012.4mb 64f 63f
7:50 6.5ft 10s 7s 16 18 mph 1012.1mb 64f 64f
6:50 6.5ft 9s 7s 18 20 mph 1011.8mb 64f 64f
5:50 6.5ft 10s 7s 16 18 mph 1011.6mb 64f 64f
4:50 8ft 10s 7s 16 18 mph 1011.7mb 64f 64f
3:50 7ft 9s 8s 16 20 mph 1011.9mb 64f 64f
2:50 7.5ft 10s 8s 13 16 mph 1012.1mb 64f 64f
1:50 7ft 11s 8s 13 16 mph 1012.5mb 63f 64f
12:50 7ft 11s 8s 11 13 mph 1012.7mb 63f 64f
11:50 7ft 9s 8s 9 11 mph 1013.2mb 63f 64f
10:50 6.5ft 11s 7s 13 18 mph 1013.4mb 62f 64f
9:50 7ft 9s 7s 9 11 mph 1013.5mb 62f 62f
8:50 7ft 9s 7s 7 11 mph 1012.9mb 62f 62f
7:50 7ft 11s 7s 11 13 mph 1012.4mb 62f 62f
6:50 7.5ft 9s 7s 13 16 mph 1011.7mb 62f 62f
5:50 8ft 8s 7s 13 18 mph 1011.2mb 62f 62f
4:50 8.5ft 8s 7s 16 18 mph 1010.6mb 62f 62f
3:50 7ft 8s 7s 16 20 mph 1010.3mb 63f 62f
2:50 8ft 9s 7s 18 20 mph 1010.3mb 63f 62f
1:50 7.5ft 9s 7s 20 25 mph 1010.4mb 63f 63f
12:50 8ft 11s 7s 18 22 mph 1010.7mb 64f 63f
Sáb 09/27 11:50 8ft 11s 7s 20 25 mph 1010.6mb 64f 63f
10:50 7.5ft 9s 7s 20 25 mph 1011.2mb 64f 64f
9:50 7.5ft 12s 7s 25 29 mph 1010.9mb 64f 63f
8:50 7ft 11s 6s 25 29 mph 1010.6mb 64f 63f
7:50 7ft 12s 6s 22 25 mph 1010.4mb 64f 63f
6:50 8ft 11s 6s 25 29 mph 1010mb 64f 63f
5:50 7.5ft 11s 6s 27 31 mph 1009.7mb 64f 64f
4:50 7.5ft 12s 6s 25 29 mph 1010mb 64f 64f
3:50 7.5ft 11s 7s 25 29 mph 1010.4mb 64f 64f
1:50 7ft 11s 7s 22 27 mph 1011.3mb 64f 63f